Time;durP1;ratioP1;P1;durP2;ratioP2;P2;SDS_P1;SDS_P2;PMS_P1;PMS_P2;Temp;Humidity;BMP_temperature;BMP_pressure;BME280_temperature;BME280_humidity;BME280_pressure;Samples;Min_cycle;Max_cycle;Signal;HPM_P1;HPM_P2
2022/10/24 00:03:55;;;;;;;18.65;11.88;;;;;;;12.30;100.00;99171.42;4338863;81;28470;-93
2022/10/24 00:09:56;;;;;;;17.92;11.43;;;;;;;12.26;100.00;99162.99;4374362;79;28511;-93
2022/10/24 00:15:58;;;;;;;19.98;11.68;;;;;;;12.38;100.00;99166.47;4415184;80;28449;-92
2022/10/24 00:21:59;;;;;;;17.92;11.08;;;;;;;12.23;100.00;99164.83;4400825;79;28484;-90
2022/10/24 00:28:01;;;;;;;28.65;14.87;;;;;;;12.30;100.00;99155.25;4411946;79;28544;-92
2022/10/24 00:34:04;;;;;;;21.07;12.73;;;;;;;12.38;100.00;99154.87;4414455;79;28494;-91
2022/10/24 00:40:07;;;;;;;32.33;14.20;;;;;;;12.73;100.00;99147.15;4360519;79;28862;-92
2022/10/24 00:46:08;;;;;;;34.13;16.12;;;;;;;13.03;100.00;99162.23;4389915;79;28442;-92
2022/10/24 00:52:11;;;;;;;28.20;14.13;;;;;;;12.65;100.00;99144.84;4397620;79;28438;-92
2022/10/24 00:58:14;;;;;;;34.50;16.07;;;;;;;12.64;100.00;99139.98;4414111;79;28470;-92
2022/10/24 01:04:16;;;;;;;30.45;14.35;;;;;;;12.79;100.00;99150.23;4395352;79;28509;-90
2022/10/24 01:10:39;;;;;;;28.42;13.85;;;;;;;11.98;100.00;99150.55;4409708;79;28477;-90
2022/10/24 01:16:48;;;;;;;30.92;14.05;;;;;;;12.11;100.00;99145.47;4336089;81;28450;-89
2022/10/24 01:23:12;;;;;;;28.92;14.07;;;;;;;11.90;100.00;99154.16;4366737;79;28474;-94
2022/10/24 01:29:40;;;;;;;26.48;13.22;;;;;;;12.74;100.00;99150.13;4381338;80;28463;-95
2022/10/24 01:35:50;;;;;;;29.23;14.45;;;;;;;12.40;100.00;99124.45;4396626;79;28514;-94
2022/10/24 01:41:54;;;;;;;31.77;15.03;;;;;;;12.08;100.00;99131.13;4379490;80;28465;-91
2022/10/24 01:47:59;;;;;;;31.45;15.95;;;;;;;12.15;100.00;99126.95;4388372;79;28459;-91
2022/10/24 01:54:03;;;;;;;31.00;15.65;;;;;;;12.17;100.00;99112.70;4224497;83;28476;-89
2022/10/24 02:00:07;;;;;;;28.87;15.00;;;;;;;12.17;100.00;99111.86;4212737;82;28558;-89
2022/10/24 02:06:19;;;;;;;31.48;15.55;;;;;;;12.25;100.00;99119.58;4279992;82;28546;-90
2022/10/24 02:12:24;;;;;;;27.58;14.38;;;;;;;12.23;100.00;99106.33;4276373;82;28472;-90
2022/10/24 02:18:29;;;;;;;23.83;14.43;;;;;;;12.27;100.00;99122.33;4298955;81;28566;-93
2022/10/24 02:24:50;;;;;;;23.25;14.13;;;;;;;12.27;100.00;99122.33;4207009;83;50506;-93
2022/10/24 02:31:09;;;;;;;23.75;14.18;;;;;;;12.06;100.00;99106.82;4277481;82;28506;-91
2022/10/24 02:37:12;;;;;;;20.85;13.40;;;;;;;11.91;100.00;99097.33;4264011;81;28445;-94
2022/10/24 02:43:14;;;;;;;21.68;12.82;;;;;;;16.28;100.00;99085.02;4312054;82;28555;-93
2022/10/24 02:49:16;;;;;;;20.20;13.10;;;;;;;11.97;100.00;99098.24;4232447;83;28526;-92
2022/10/24 02:55:17;;;;;;;21.12;12.73;;;;;;;12.19;100.00;99103.84;4289129;81;28568;-92
2022/10/24 03:01:19;;;;;;;19.32;12.25;;;;;;;11.89;100.00;99107.52;4347497;81;28471;-92
2022/10/24 03:07:20;;;;;;;19.62;11.95;;;;;;;11.96;100.00;99103.34;4247697;82;28486;-94
2022/10/24 03:13:21;;;;;;;22.48;12.37;;;;;;;11.77;100.00;99089.23;4244114;82;28464;-94
2022/10/24 03:19:22;;;;;;;20.32;12.88;;;;;;;11.62;100.00;99097.28;4283668;82;28464;-93
2022/10/24 03:25:24;;;;;;;20.37;12.85;;;;;;;11.97;100.00;99100.42;4279235;82;28483;-91
2022/10/24 03:31:26;;;;;;;21.10;11.73;;;;;;;11.82;100.00;99086.66;4269841;82;28468;-92
2022/10/24 03:37:28;;;;;;;19.20;12.20;;;;;;;11.56;100.00;99099.56;4263941;81;28446;-92
2022/10/24 03:43:29;;;;;;;18.32;11.78;;;;;;;11.35;100.00;99083.48;4224425;82;28493;-91
2022/10/24 03:49:31;;;;;;;20.80;11.97;;;;;;;12.58;100.00;99065.98;4270919;82;28480;-93
2022/10/24 03:55:33;;;;;;;19.00;11.75;;;;;;;12.08;100.00;99068.31;4299794;82;28477;-95
2022/10/24 04:01:34;;;;;;;22.35;13.10;;;;;;;11.82;100.00;99071.30;4286620;82;28547;-90
2022/10/24 04:07:36;;;;;;;21.62;13.30;;;;;;;12.19;100.00;99090.91;4283995;82;28471;-94
2022/10/24 04:13:37;;;;;;;21.77;12.25;;;;;;;12.51;100.00;99091.20;4244889;82;28469;-86
2022/10/24 04:19:39;;;;;;;18.52;11.45;;;;;;;12.21;100.00;99082.84;4265013;82;28493;-91
2022/10/24 04:25:41;;;;;;;18.40;11.50;;;;;;;12.51;100.00;99097.15;4268711;82;28446;-89
2022/10/24 04:31:42;;;;;;;16.37;11.22;;;;;;;12.43;100.00;99074.62;4237257;83;28540;-92
2022/10/24 04:37:43;;;;;;;17.73;11.53;;;;;;;12.53;100.00;99073.45;4264614;82;28508;-89
2022/10/24 04:43:49;;;;;;;17.23;11.75;;;;;;;12.69;100.00;99094.21;4406356;79;28459;-89
2022/10/24 04:49:48;;;;;;;17.60;11.35;;;;;;;12.58;100.00;99090.25;4374164;81;28510;-84
2022/10/24 04:55:49;;;;;;;16.73;10.68;;;;;;;12.64;100.00;99100.88;4382984;79;28469;-78
2022/10/24 05:01:54;;;;;;;15.98;11.28;;;;;;;12.62;100.00;99088.69;4356190;80;28497;-86
2022/10/24 05:07:57;;;;;;;17.42;11.48;;;;;;;12.54;100.00;99084.52;4379482;80;28465;-95
2022/10/24 05:13:58;;;;;;;20.17;12.28;;;;;;;12.20;100.00;99091.99;4389269;79;28438;-82
2022/10/24 05:20:03;;;;;;;20.62;12.82;;;;;;;12.25;100.00;99081.84;4364575;79;28466;-89
2022/10/24 05:26:05;;;;;;;21.47;12.27;;;;;;;12.71;100.00;99063.50;4377040;79;28512;-89
2022/10/24 05:32:08;;;;;;;23.15;12.78;;;;;;;12.67;100.00;99067.22;4369351;79;28475;-89
2022/10/24 05:38:10;;;;;;;19.48;12.05;;;;;;;12.80;100.00;99079.55;4377808;79;28490;-84
2022/10/24 05:44:12;;;;;;;24.63;13.30;;;;;;;13.00;100.00;99079.59;4369903;79;28583;-87
2022/10/24 05:50:14;;;;;;;21.40;12.75;;;;;;;13.12;100.00;99097.88;4341233;79;28542;-79
2022/10/24 05:56:17;;;;;;;22.98;13.13;;;;;;;13.14;100.00;99092.22;4307250;79;28548;-78
2022/10/24 06:02:20;;;;;;;24.18;13.15;;;;;;;18.48;96.84;99066.09;4371130;79;28556;-78
2022/10/24 06:08:22;;;;;;;23.27;13.80;;;;;;;19.33;72.17;99072.20;4356271;79;28514;-77
2022/10/24 06:14:24;;;;;;;25.90;13.40;;;;;;;18.95;71.93;99071.98;4400752;79;28532;-78
2022/10/24 06:20:26;;;;;;;25.97;13.15;;;;;;;19.05;70.66;99080.66;4403224;79;28565;-77
2022/10/24 06:26:28;;;;;;;26.02;13.48;;;;;;;19.22;70.19;99087.86;4409303;79;28586;-77
2022/10/24 06:32:29;;;;;;;23.27;13.55;;;;;;;19.31;69.00;99093.48;4398772;79;28475;-77
2022/10/24 06:38:32;;;;;;;21.05;12.73;;;;;;;19.86;68.03;99101.08;4401876;79;28522;-78
2022/10/24 06:44:34;;;;;;;22.65;12.95;;;;;;;19.54;69.38;99107.42;4437932;79;28480;-77
2022/10/24 06:50:39;;;;;;;21.90;13.60;;;;;;;19.37;69.67;99118.78;4431360;79;28519;-78
2022/10/24 06:56:40;;;;;;;24.25;13.10;;;;;;;19.41;69.86;99114.36;4387738;79;28501;-78
2022/10/24 07:02:42;;;;;;;26.30;14.07;;;;;;;19.84;69.48;99111.48;4352349;79;28548;-77
2022/10/24 07:08:44;;;;;;;25.17;13.78;;;;;;;20.01;68.98;99116.48;4234729;83;28522;-77
2022/10/24 07:14:47;;;;;;;24.85;13.85;;;;;;;19.56;70.84;99120.21;4227058;82;28495;-78
2022/10/24 07:20:48;;;;;;;24.32;13.72;;;;;;;19.78;71.87;99124.34;4221619;83;28500;-78
2022/10/24 07:26:51;;;;;;;22.87;13.80;;;;;;;20.18;72.13;99120.08;4341452;79;28516;-78
2022/10/24 07:32:55;;;;;;;26.33;14.78;;;;;;;20.34;71.50;99117.38;4386481;79;28524;-78
2022/10/24 07:39:01;;;;;;;22.22;14.20;;;;;;;20.95;70.47;99111.88;4368491;79;28552;-78
2022/10/24 07:45:04;;;;;;;22.17;14.63;;;;;;;20.92;70.65;99111.11;4348761;79;28508;-78
2022/10/24 07:51:08;;;;;;;22.07;13.50;;;;;;;20.71;72.27;99101.85;4361779;79;28490;-78
2022/10/24 07:57:09;;;;;;;23.47;13.78;;;;;;;20.68;73.15;99106.55;4345736;79;28544;-78
2022/10/24 08:03:10;;;;;;;20.55;13.18;;;;;;;20.62;74.13;99088.06;4413859;79;28555;-78
2022/10/24 08:09:12;;;;;;;23.30;13.40;;;;;;;20.58;74.99;99079.66;4392300;79;28448;-78
2022/10/24 08:15:14;;;;;;;19.45;13.35;;;;;;;20.78;73.61;99097.38;4390771;79;28483;-79
2022/10/24 08:21:20;;;;;;;22.37;14.03;;;;;;;21.11;71.86;99104.23;4362825;79;28481;-78
2022/10/24 08:27:21;;;;;;;26.02;14.60;;;;;;;20.96;72.35;99104.76;4405634;79;28524;-78
2022/10/24 08:33:23;;;;;;;22.85;14.30;;;;;;;21.33;71.99;99089.08;4385935;79;28449;-77
2022/10/24 08:39:25;;;;;;;20.35;13.93;;;;;;;21.58;71.09;99087.78;4385902;79;28459;-77
2022/10/24 08:45:44;;;;;;;20.50;12.75;;;;;;;21.76;71.14;99075.72;4385493;80;28490;-78
2022/10/24 08:52:00;;;;;;;17.87;11.73;;;;;;;22.13;70.45;99063.69;4355755;79;28598;-78
2022/10/24 08:58:04;;;;;;;22.20;13.43;;;;;;;22.53;69.78;99053.49;4361372;79;28485;-77
2022/10/24 09:04:09;;;;;;;15.70;10.03;;;;;;;22.81;69.74;99025.97;4433757;79;28516;-78
2022/10/24 09:10:18;;;;;;;13.83;7.53;;;;;;;23.43;68.87;99029.59;4380782;79;28475;-78
2022/10/24 09:16:23;;;;;;;15.48;8.20;;;;;;;24.09;67.87;99030.97;4371551;79;28496;-78
2022/10/24 09:22:28;;;;;;;11.50;7.12;;;;;;;24.39;66.52;99030.31;4353556;79;28605;-77
2022/10/24 09:28:34;;;;;;;11.40;6.97;;;;;;;25.12;65.70;99028.75;4218117;82;28502;-78
2022/10/24 09:34:43;;;;;;;14.45;7.35;;;;;;;25.09;64.45;99021.13;4348600;79;28555;-79
2022/10/24 09:40:57;;;;;;;9.23;6.85;;;;;;;25.67;63.58;99005.59;4381453;79;28576;-77
2022/10/24 09:47:01;;;;;;;11.95;7.97;;;;;;;25.77;62.26;99022.88;4389717;79;28467;-78
2022/10/24 09:53:04;;;;;;;13.98;9.85;;;;;;;25.13;62.38;99049.61;4466660;79;28601;-82
2022/10/24 09:59:42;;;;;;;15.23;9.60;;;;;;;24.03;65.67;99041.82;4410885;79;28604;-82
2022/10/24 10:05:51;;;;;;;11.60;7.85;;;;;;;24.98;63.73;99033.08;4376427;79;28515;-82
2022/10/24 10:11:56;;;;;;;14.15;7.75;;;;;;;25.04;61.83;99033.15;4381722;79;28480;-82
2022/10/24 10:18:02;;;;;;;12.90;7.55;;;;;;;25.06;62.09;99021.80;4362199;79;28975;-82
2022/10/24 10:24:22;;;;;;;10.90;7.40;;;;;;;25.91;61.75;99014.36;4388089;79;28514;-81
2022/10/24 10:30:24;;;;;;;11.93;7.47;;;;;;;26.18;60.56;99008.30;4245781;82;28479;-83
2022/10/24 10:36:34;;;;;;;12.88;7.60;;;;;;;26.68;59.99;99005.77;4261868;82;28464;-81
2022/10/24 10:43:05;;;;;;;12.50;7.42;;;;;;;26.61;60.37;99026.20;4242784;82;28462;-82
2022/10/24 10:49:39;;;;;;;13.90;9.05;;;;;;;26.25;61.39;99032.61;4238727;82;28535;-84
2022/10/24 10:56:21;;;;;;;14.15;8.38;;;;;;;26.02;60.81;99015.57;4276336;82;28448;-83
2022/10/24 11:03:15;;;;;;;11.65;7.85;;;;;;;26.30;60.71;99021.95;4212422;82;28509;-89
2022/10/24 11:09:23;;;;;;;13.70;7.92;;;;;;;26.28;60.50;99015.95;4236017;83;28501;-88
2022/10/24 11:15:30;;;;;;;12.53;7.58;;;;;;;26.84;59.75;99019.70;4209664;82;28495;-88
2022/10/24 11:21:38;;;;;;;10.23;7.10;;;;;;;26.75;59.72;99009.33;4285203;82;28458;-88
2022/10/24 11:27:44;;;;;;;8.80;5.53;;;;;;;26.92;58.26;99008.95;4238709;82;28468;-85
2022/10/24 11:34:16;;;;;;;9.18;5.58;;;;;;;26.30;58.03;99016.44;4235920;82;28526;-83
2022/10/24 11:40:24;;;;;;;9.68;5.22;;;;;;;26.48;58.80;99028.11;4210391;82;28486;-83
2022/10/24 11:46:40;;;;;;;9.88;5.20;;;;;;;25.55;60.09;99035.20;4296383;82;28479;-83
2022/10/24 11:52:51;;;;;;;12.03;5.28;;;;;;;25.34;60.09;99029.05;4223734;82;28485;-82
2022/10/24 11:59:01;;;;;;;9.93;5.12;;;;;;;26.02;60.39;99032.09;4219619;82;28443;-82
2022/10/24 12:05:20;;;;;;;9.28;4.85;;;;;;;25.64;60.35;99020.04;4257573;82;28554;-82
2022/10/24 12:11:36;;;;;;;7.03;4.37;;;;;;;25.95;58.73;99018.86;4244892;82;28464;-81
2022/10/24 12:18:00;;;;;;;;;;;;;;;26.25;58.37;99005.05;4261311;82;28524;-82
2022/10/24 12:24:03;;;;;;;8.48;4.30;;;;;;;26.07;56.63;98999.42;4258061;82;20206;-82
2022/10/24 12:30:16;;;;;;;12.65;4.80;;;;;;;26.15;57.31;98997.17;4262160;82;28466;-82
2022/10/24 12:36:23;;;;;;;8.83;4.25;;;;;;;26.42;57.50;98981.22;4235432;82;28487;-82
2022/10/24 12:42:33;;;;;;;6.20;4.08;;;;;;;26.45;57.39;98975.05;4220646;82;28555;-82
2022/10/24 12:48:40;;;;;;;7.62;3.83;;;;;;;26.13;57.61;98974.08;4239515;82;28523;-82
2022/10/24 12:54:44;;;;;;;5.92;3.87;;;;;;;26.24;57.60;98959.36;4223443;82;28566;-82
2022/10/24 13:01:01;;;;;;;7.00;3.72;;;;;;;26.41;57.53;98956.18;4239135;82;28621;-82
2022/10/24 13:07:21;;;;;;;8.58;4.70;;;;;;;26.45;57.79;98947.48;4216394;82;28462;-82
2022/10/24 13:13:46;;;;;;;7.83;4.37;;;;;;;26.27;57.88;98953.72;4226924;82;28506;-82
2022/10/24 13:20:05;;;;;;;7.83;4.03;;;;;;;26.31;57.52;98940.89;4253452;81;28502;-82
2022/10/24 13:26:08;;;;;;;8.73;3.90;;;;;;;26.02;58.18;98939.23;4187850;82;28539;-82
2022/10/24 13:32:15;;;;;;;8.43;4.00;;;;;;;26.17;57.88;98950.80;4300894;82;28508;-82
2022/10/24 13:38:17;;;;;;;6.95;4.22;;;;;;;26.08;57.95;98961.88;4231628;83;28531;-84
2022/10/24 13:44:33;;;;;;;7.12;4.10;;;;;;;26.00;58.53;98960.81;4256427;82;28464;-82
2022/10/24 13:50:40;;;;;;;8.63;4.58;;;;;;;25.97;58.60;98951.03;4320237;82;28499;-82
2022/10/24 13:56:44;;;;;;;10.05;4.78;;;;;;;26.03;58.94;98953.27;4226307;82;28522;-82
2022/10/24 14:02:50;;;;;;;8.65;5.08;;;;;;;25.95;59.09;98962.97;4256630;82;28493;-82
2022/10/24 14:08:54;;;;;;;6.47;3.50;;;;;;;25.77;59.04;98967.22;4253719;82;28459;-82
2022/10/24 14:15:01;;;;;;;6.75;3.27;;;;;;;25.47;58.63;98964.50;4200271;82;28511;-82
2022/10/24 14:21:04;;;;;;;5.30;2.80;;;;;;;25.49;57.63;98966.34;4248520;82;28533;-82
2022/10/24 14:27:05;;;;;;;8.00;2.75;;;;;;;25.46;57.37;98961.48;4243027;82;28464;-83
2022/10/24 14:33:18;;;;;;;7.55;2.95;;;;;;;25.16;57.80;98966.42;4217051;84;28491;-82
2022/10/24 14:39:22;;;;;;;6.70;3.30;;;;;;;25.11;57.46;98965.80;4245929;82;28457;-82
2022/10/24 14:45:29;;;;;;;7.53;3.17;;;;;;;25.26;58.05;98967.19;4267257;82;28473;-81
2022/10/24 14:51:36;;;;;;;6.60;3.10;;;;;;;25.27;58.11;98980.63;4303306;82;28591;-82
2022/10/24 14:57:37;;;;;;;8.50;4.72;;;;;;;24.98;58.94;98979.45;4271702;82;28446;-82
2022/10/24 15:03:53;;;;;;;7.87;3.52;;;;;;;24.90;59.15;98973.41;4226375;82;28545;-82
2022/10/24 15:10:10;;;;;;;7.50;3.27;;;;;;;24.73;59.59;98983.88;4231311;82;28490;-82
2022/10/24 15:16:22;;;;;;;8.28;3.50;;;;;;;24.68;59.87;98990.91;4230520;82;28500;-82
2022/10/24 15:22:30;;;;;;;8.53;4.45;;;;;;;24.25;60.73;98989.84;4219030;83;28485;-84
2022/10/24 15:28:48;;;;;;;9.55;4.37;;;;;;;24.11;61.89;98993.58;4233176;82;28486;-85
2022/10/24 15:34:55;;;;;;;8.53;4.10;;;;;;;24.09;62.22;98993.07;4177837;82;28540;-86
2022/10/24 15:40:57;;;;;;;10.45;4.67;;;;;;;23.90;62.79;98987.32;4212823;82;28451;-84
2022/10/24 15:46:58;;;;;;;12.05;4.60;;;;;;;23.81;63.09;98984.55;4238151;82;28506;-85
2022/10/24 15:53:15;;;;;;;13.00;6.60;;;;;;;23.50;64.24;98988.78;4269564;81;28503;-85
2022/10/24 15:59:26;;;;;;;13.00;4.80;;;;;;;23.26;64.87;98991.33;4271869;81;28460;-86
2022/10/24 16:05:42;;;;;;;8.88;4.50;;;;;;;23.06;65.70;98985.86;4231607;82;28561;-86
2022/10/24 16:11:44;;;;;;;13.98;4.40;;;;;;;22.91;66.34;98982.97;4219988;83;28476;-84
2022/10/24 16:17:45;;;;;;;11.08;4.53;;;;;;;22.59;67.56;98983.52;4196246;83;28506;-85
2022/10/24 16:23:47;;;;;;;10.38;3.87;;;;;;;22.38;68.32;98989.48;4286764;81;28540;-85
2022/10/24 16:29:49;;;;;;;10.82;5.00;;;;;;;22.26;69.02;98992.22;4219585;82;28478;-83
2022/10/24 16:35:52;;;;;;;14.33;4.78;;;;;;;22.36;69.15;98991.72;4203183;83;28474;-83
2022/10/24 16:41:54;;;;;;;8.88;5.10;;;;;;;22.27;69.89;98992.47;4274161;82;28544;-85
2022/10/24 16:48:04;;;;;;;11.30;5.33;;;;;;;22.11;70.92;98992.02;4229822;82;28490;-84
2022/10/24 16:54:21;;;;;;;11.88;5.67;;;;;;;22.10;71.00;99011.48;4043040;86;28479;-80
2022/10/24 17:00:29;;;;;;;10.63;5.40;;;;;;;22.12;72.07;99016.08;4184307;82;28534;-82
2022/10/24 17:06:33;;;;;;;13.35;5.83;;;;;;;21.92;73.65;99015.45;4206853;82;28486;-87
2022/10/24 17:12:42;;;;;;;12.80;6.33;;;;;;;22.05;73.05;99011.03;4302807;82;28502;-78
2022/10/24 17:18:45;;;;;;;11.63;6.40;;;;;;;22.08;74.04;99016.46;4235295;82;28460;-79
2022/10/24 17:24:49;;;;;;;12.33;6.30;;;;;;;22.04;73.88;99006.68;4223814;83;28482;-79
2022/10/24 17:30:54;;;;;;;12.95;6.58;;;;;;;22.08;73.23;99000.03;4224657;83;28499;-75
2022/10/24 17:37:22;;;;;;;11.48;5.70;;;;;;;22.07;74.38;98987.47;4207002;82;28516;-77
2022/10/24 17:43:28;;;;;;;13.18;6.58;;;;;;;21.87;74.71;98988.18;4231503;82;28464;-77
2022/10/24 17:49:29;;;;;;;15.20;6.35;;;;;;;22.08;72.96;98984.98;4221490;82;28549;-76
2022/10/24 17:55:32;;;;;;;14.00;7.00;;;;;;;22.05;72.98;98984.23;4220839;83;28476;-77
2022/10/24 18:01:35;;;;;;;10.85;6.40;;;;;;;21.88;73.92;98983.53;4213603;82;28507;-77
2022/10/24 18:07:36;;;;;;;14.53;6.72;;;;;;;22.09;72.49;98979.20;4208029;82;28478;-76
2022/10/24 18:13:38;;;;;;;11.05;6.60;;;;;;;22.14;71.96;98969.48;4220316;82;28503;-77
2022/10/24 18:19:43;;;;;;;13.53;6.30;;;;;;;21.76;73.63;98971.74;4205630;83;28507;-76
2022/10/24 18:25:48;;;;;;;13.28;5.95;;;;;;;21.63;73.97;98976.09;4203219;82;28539;-77
2022/10/24 18:31:54;;;;;;;12.60;6.50;;;;;;;21.70;73.88;98980.05;4208143;82;28535;-76
2022/10/24 18:37:59;;;;;;;13.05;7.03;;;;;;;21.55;74.41;98972.95;4261345;82;28499;-78
2022/10/24 18:44:08;;;;;;;13.90;7.15;;;;;;;21.38;75.38;98974.95;4221410;82;28446;-78
2022/10/24 18:50:16;;;;;;;12.53;7.55;;;;;;;21.37;75.95;98968.44;4239444;82;28469;-78
2022/10/24 18:56:20;;;;;;;17.40;7.97;;;;;;;21.37;75.68;98967.06;4247272;82;28485;-75
2022/10/24 19:02:39;;;;;;;13.28;7.70;;;;;;;21.24;76.40;98968.69;4235405;82;28539;-79
2022/10/24 19:08:40;;;;;;;13.95;6.80;;;;;;;21.32;75.55;98958.41;4111004;85;28482;-76
2022/10/24 19:14:42;;;;;;;16.23;7.42;;;;;;;21.17;76.05;98960.31;4139344;84;28510;-78
2022/10/24 19:20:44;;;;;;;13.35;7.55;;;;;;;21.05;77.06;98951.82;4116997;84;28538;-82
2022/10/24 19:26:48;;;;;;;13.93;6.70;;;;;;;20.97;78.76;98936.13;4127796;85;28507;-84
2022/10/24 19:32:53;;;;;;;13.68;7.30;;;;;;;20.98;77.81;98930.36;4118939;85;28593;-79
2022/10/24 19:38:59;;;;;;;12.25;6.62;;;;;;;21.07;77.35;98946.85;4126506;84;28493;-79
2022/10/24 19:45:04;;;;;;;14.70;7.53;;;;;;;21.22;77.37;98957.25;4132321;84;28497;-78
2022/10/24 19:51:10;;;;;;;15.15;8.55;;;;;;;21.32;76.58;98957.04;4129778;84;28486;-79
2022/10/24 19:57:12;;;;;;;16.48;8.38;;;;;;;21.61;76.16;98972.31;4134070;84;28475;-78
2022/10/24 20:03:14;;;;;;;12.20;6.45;;;;;;;21.84;74.86;98968.28;4205225;81;28595;-77
2022/10/24 20:09:16;;;;;;;15.32;6.67;;;;;;;21.77;72.27;98967.34;4296458;81;28468;-79
2022/10/24 20:15:18;;;;;;;13.62;7.03;;;;;;;21.77;72.36;98963.23;4249514;81;28477;-78
2022/10/24 20:21:19;;;;;;;16.15;9.50;;;;;;;21.56;73.92;98968.30;4272967;82;28553;-80
2022/10/24 20:27:20;;;;;;;19.98;9.63;;;;;;;21.45;74.65;98991.77;4255164;82;28480;-79
2022/10/24 20:33:24;;;;;;;14.90;8.00;;;;;;;21.37;76.20;98978.00;4267161;82;28515;-80
2022/10/24 20:39:27;;;;;;;16.20;9.15;;;;;;;21.48;75.05;98974.48;4259291;82;28525;-80
2022/10/24 20:45:29;;;;;;;16.95;8.73;;;;;;;21.84;73.11;98974.55;4294989;81;28560;-80
2022/10/24 20:51:31;;;;;;;12.78;7.90;;;;;;;21.41;74.91;98974.90;4259125;83;28468;-78
2022/10/24 20:57:34;;;;;;;15.53;9.28;;;;;;;21.46;74.96;98977.55;4241769;82;28516;-79
2022/10/24 21:03:41;;;;;;;20.77;11.10;;;;;;;21.29;76.43;98983.61;4290221;81;28498;-79
2022/10/24 21:09:42;;;;;;;23.73;11.97;;;;;;;21.27;76.80;98994.04;4272964;82;28576;-83
2022/10/24 21:15:45;;;;;;;23.45;13.68;;;;;;;21.30;77.14;98992.88;4302166;82;28467;-83
2022/10/24 21:21:49;;;;;;;25.23;14.95;;;;;;;21.33;78.04;99004.31;4302331;82;28459;-84
2022/10/24 21:27:53;;;;;;;28.23;15.23;;;;;;;21.32;78.49;98996.69;4282113;82;28445;-83
2022/10/24 21:33:54;;;;;;;24.23;14.18;;;;;;;21.45;78.71;99002.70;4290976;81;28499;-83
2022/10/24 21:39:58;;;;;;;27.17;12.78;;;;;;;21.60;78.16;99002.13;4299226;81;28509;-83
2022/10/24 21:46:15;;;;;;;24.67;13.28;;;;;;;21.21;83.93;99004.84;4283741;81;28480;-84
2022/10/24 21:52:17;;;;;;;27.20;13.83;;;;;;;21.69;81.61;98995.42;4289081;81;28491;-79
2022/10/24 21:58:18;;;;;;;29.60;14.43;;;;;;;21.65;82.42;98991.62;4280449;82;28495;-80
2022/10/24 22:04:20;;;;;;;22.48;13.20;;;;;;;21.85;81.67;98995.32;4275059;82;28452;-81
2022/10/24 22:10:21;;;;;;;24.85;13.62;;;;;;;21.68;83.83;98994.59;4285404;82;28478;-83
2022/10/24 22:16:25;;;;;;;23.35;12.88;;;;;;;21.70;85.49;98999.20;4259146;82;28518;-82
2022/10/24 22:22:27;;;;;;;21.25;13.38;;;;;;;21.97;84.44;98999.45;4248526;82;28460;-83
2022/10/24 22:28:28;;;;;;;21.80;13.48;;;;;;;21.73;86.81;99015.02;4249056;82;28460;-82
2022/10/24 22:34:30;;;;;;;22.13;12.95;;;;;;;21.97;86.31;99013.13;4258057;82;28568;-82
2022/10/24 22:40:32;;;;;;;26.95;13.45;;;;;;;22.57;84.45;99009.85;4251934;82;28480;-82
2022/10/24 22:47:09;;;;;;;24.45;13.15;;;;;;;22.91;80.83;99011.75;4249188;82;28524;-82
2022/10/24 22:53:13;;;;;;;20.27;11.68;;;;;;;23.26;79.00;99018.75;4258867;82;28496;-82
2022/10/24 22:59:18;;;;;;;17.87;11.45;;;;;;;22.77;79.98;99017.31;4248000;82;28442;-82
2022/10/24 23:05:36;;;;;;;20.23;13.05;;;;;;;22.23;86.46;99007.91;4278759;82;28495;-85
2022/10/24 23:11:39;;;;;;;27.22;16.50;;;;;;;22.54;85.30;99010.48;4227818;82;28501;-80
2022/10/24 23:17:41;;;;;;;37.25;20.60;;;;;;;22.67;82.26;99017.02;4301028;81;28471;-80
2022/10/24 23:23:43;;;;;;;40.17;24.47;;;;;;;22.77;82.03;99014.02;4237005;82;28501;-79
2022/10/24 23:29:46;;;;;;;30.72;21.33;;;;;;;24.20;75.97;99012.21;4276290;82;28482;-79
2022/10/24 23:35:51;;;;;;;27.98;17.98;;;;;;;20.12;92.29;99025.72;4249967;81;28504;-79
2022/10/24 23:41:53;;;;;;;31.15;18.60;;;;;;;22.34;100.00;99010.41;4370741;80;28484;-80
2022/10/24 23:48:16;;;;;;;33.05;18.98;;;;;;;22.29;87.76;99014.86;4409723;79;28446;-79
2022/10/24 23:54:23;;;;;;;30.27;17.80;;;;;;;22.19;89.26;99014.31;4219742;82;28440;-80
